Lookout, Wyoming
Current Conditions -  °F | °C
As of 8:53 AM on Monday 22 Dec 2014 (Local Time) from KLAR Reporting Station
Overcast Overcast  
Wind Chill: 10°   Ceiling: 4300
Heat Index: 25°   Visibility: 10mi
Dew Point: 17°   Wind: 22mph
Humidity: 72%   Direction: 320°NW
Pressure: 29.69"   Gusts: 31mph
Location:  41.5395°N, 105.861°W
Report Text: KLAR 221553Z AUTO 32019G27KT 10SM BKN043 OVC055 M04/M08 A2969 RMK AO2 PK WND 32027/1548 SLP065 T10391083
Loading
Personal Weather Stations






























Interactive Weather Map New forecast layout! Learn more

10-Day Weather Forecast

Advertisements
Track Severe Weather on mobile